sensor_id;sensor_type;location;lat;lon;timestamp;P1;durP1;ratioP1;P2;durP2;ratioP2
20159;SDS011;50187;50.492;12.134;2023-04-03T00:00:16;0.87;;;0.80;;
20159;SDS011;50187;50.492;12.134;2023-04-03T00:03:02;1.20;;;1.20;;
20159;SDS011;50187;50.492;12.134;2023-04-03T00:05:47;1.23;;;1.17;;
20159;SDS011;50187;50.492;12.134;2023-04-03T00:08:33;0.93;;;0.93;;
20159;SDS011;50187;50.492;12.134;2023-04-03T00:11:19;1.23;;;0.80;;
20159;SDS011;50187;50.492;12.134;2023-04-03T00:14:05;0.80;;;0.80;;
20159;SDS011;50187;50.492;12.134;2023-04-03T00:16:50;0.97;;;0.97;;
20159;SDS011;50187;50.492;12.134;2023-04-03T00:19:35;1.00;;;1.00;;
20159;SDS011;50187;50.492;12.134;2023-04-03T00:22:20;1.00;;;1.00;;
20159;SDS011;50187;50.492;12.134;2023-04-03T00:25:05;0.90;;;0.90;;
20159;SDS011;50187;50.492;12.134;2023-04-03T00:27:51;1.10;;;1.10;;
20159;SDS011;50187;50.492;12.134;2023-04-03T00:30:36;0.80;;;0.80;;
20159;SDS011;50187;50.492;12.134;2023-04-03T00:33:22;0.80;;;0.80;;
20159;SDS011;50187;50.492;12.134;2023-04-03T00:36:08;1.10;;;1.10;;
20159;SDS011;50187;50.492;12.134;2023-04-03T00:38:55;1.00;;;1.00;;
20159;SDS011;50187;50.492;12.134;2023-04-03T00:41:40;0.80;;;0.80;;
20159;SDS011;50187;50.492;12.134;2023-04-03T00:47:13;0.97;;;0.97;;
20159;SDS011;50187;50.492;12.134;2023-04-03T00:50:01;1.00;;;1.00;;
20159;SDS011;50187;50.492;12.134;2023-04-03T00:52:46;0.93;;;0.90;;
20159;SDS011;50187;50.492;12.134;2023-04-03T00:55:34;1.03;;;0.93;;
20159;SDS011;50187;50.492;12.134;2023-04-03T00:58:22;0.90;;;0.90;;
20159;SDS011;50187;50.492;12.134;2023-04-03T01:01:14;1.10;;;1.00;;
20159;SDS011;50187;50.492;12.134;2023-04-03T01:04:04;0.80;;;0.80;;
20159;SDS011;50187;50.492;12.134;2023-04-03T01:06:51;1.20;;;1.00;;
20159;SDS011;50187;50.492;12.134;2023-04-03T01:09:37;0.93;;;0.93;;
20159;SDS011;50187;50.492;12.134;2023-04-03T01:12:25;0.90;;;0.87;;
20159;SDS011;50187;50.492;12.134;2023-04-03T01:15:17;1.03;;;1.03;;
20159;SDS011;50187;50.492;12.134;2023-04-03T01:18:08;1.13;;;0.90;;
20159;SDS011;50187;50.492;12.134;2023-04-03T01:23:46;0.90;;;0.90;;
20159;SDS011;50187;50.492;12.134;2023-04-03T01:26:36;1.17;;;1.07;;
20159;SDS011;50187;50.492;12.134;2023-04-03T01:29:21;0.83;;;0.83;;
20159;SDS011;50187;50.492;12.134;2023-04-03T01:32:07;1.00;;;1.00;;
20159;SDS011;50187;50.492;12.134;2023-04-03T01:34:52;0.90;;;0.90;;
20159;SDS011;50187;50.492;12.134;2023-04-03T01:37:38;1.13;;;0.90;;
20159;SDS011;50187;50.492;12.134;2023-04-03T01:40:24;0.83;;;0.80;;
20159;SDS011;50187;50.492;12.134;2023-04-03T01:43:11;0.80;;;0.80;;
20159;SDS011;50187;50.492;12.134;2023-04-03T01:45:56;1.00;;;1.00;;
20159;SDS011;50187;50.492;12.134;2023-04-03T01:48:42;1.00;;;1.00;;
20159;SDS011;50187;50.492;12.134;2023-04-03T01:51:27;1.30;;;1.20;;
20159;SDS011;50187;50.492;12.134;2023-04-03T01:54:12;0.83;;;0.83;;
20159;SDS011;50187;50.492;12.134;2023-04-03T01:56:58;0.70;;;0.70;;
20159;SDS011;50187;50.492;12.134;2023-04-03T01:59:43;0.50;;;0.50;;
20159;SDS011;50187;50.492;12.134;2023-04-03T02:02:28;0.87;;;0.87;;
20159;SDS011;50187;50.492;12.134;2023-04-03T02:05:14;0.83;;;0.83;;
20159;SDS011;50187;50.492;12.134;2023-04-03T02:07:59;1.13;;;1.13;;
20159;SDS011;50187;50.492;12.134;2023-04-03T02:10:47;0.70;;;0.70;;
20159;SDS011;50187;50.492;12.134;2023-04-03T02:13:33;0.93;;;0.93;;
20159;SDS011;50187;50.492;12.134;2023-04-03T02:16:18;0.90;;;0.90;;
20159;SDS011;50187;50.492;12.134;2023-04-03T02:19:03;0.90;;;0.90;;
20159;SDS011;50187;50.492;12.134;2023-04-03T02:21:49;1.07;;;0.80;;
20159;SDS011;50187;50.492;12.134;2023-04-03T02:24:34;1.10;;;1.00;;
20159;SDS011;50187;50.492;12.134;2023-04-03T02:27:19;0.60;;;0.60;;
20159;SDS011;50187;50.492;12.134;2023-04-03T02:30:06;1.10;;;0.97;;
20159;SDS011;50187;50.492;12.134;2023-04-03T02:32:51;0.90;;;0.83;;
20159;SDS011;50187;50.492;12.134;2023-04-03T02:35:38;1.60;;;1.17;;
20159;SDS011;50187;50.492;12.134;2023-04-03T02:38:24;1.10;;;1.00;;
20159;SDS011;50187;50.492;12.134;2023-04-03T02:41:11;1.33;;;1.07;;
20159;SDS011;50187;50.492;12.134;2023-04-03T02:43:58;0.90;;;0.90;;
20159;SDS011;50187;50.492;12.134;2023-04-03T02:46:43;0.90;;;0.90;;
20159;SDS011;50187;50.492;12.134;2023-04-03T02:49:28;1.00;;;1.00;;
20159;SDS011;50187;50.492;12.134;2023-04-03T02:52:14;0.70;;;0.70;;
20159;SDS011;50187;50.492;12.134;2023-04-03T02:55:00;1.10;;;1.00;;
20159;SDS011;50187;50.492;12.134;2023-04-03T02:57:45;0.77;;;0.77;;
20159;SDS011;50187;50.492;12.134;2023-04-03T03:00:31;0.90;;;0.90;;
20159;SDS011;50187;50.492;12.134;2023-04-03T03:03:16;0.77;;;0.77;;
20159;SDS011;50187;50.492;12.134;2023-04-03T03:06:05;0.90;;;0.90;;
20159;SDS011;50187;50.492;12.134;2023-04-03T03:08:52;0.87;;;0.87;;
20159;SDS011;50187;50.492;12.134;2023-04-03T03:11:37;0.97;;;0.90;;
20159;SDS011;50187;50.492;12.134;2023-04-03T03:14:23;0.80;;;0.80;;
20159;SDS011;50187;50.492;12.134;2023-04-03T03:17:08;1.20;;;1.03;;
20159;SDS011;50187;50.492;12.134;2023-04-03T03:19:54;0.87;;;0.87;;
20159;SDS011;50187;50.492;12.134;2023-04-03T03:22:39;1.20;;;1.10;;
20159;SDS011;50187;50.492;12.134;2023-04-03T03:25:24;0.93;;;0.83;;
20159;SDS011;50187;50.492;12.134;2023-04-03T03:28:09;0.90;;;0.90;;
20159;SDS011;50187;50.492;12.134;2023-04-03T03:30:54;0.90;;;0.90;;
20159;SDS011;50187;50.492;12.134;2023-04-03T03:33:40;0.80;;;0.80;;
20159;SDS011;50187;50.492;12.134;2023-04-03T03:36:25;0.70;;;0.70;;
20159;SDS011;50187;50.492;12.134;2023-04-03T03:39:12;1.27;;;1.00;;
20159;SDS011;50187;50.492;12.134;2023-04-03T03:41:57;0.67;;;0.67;;
20159;SDS011;50187;50.492;12.134;2023-04-03T03:44:43;0.83;;;0.83;;
20159;SDS011;50187;50.492;12.134;2023-04-03T03:47:27;0.90;;;0.80;;
20159;SDS011;50187;50.492;12.134;2023-04-03T03:50:14;0.80;;;0.80;;
20159;SDS011;50187;50.492;12.134;2023-04-03T03:52:59;0.77;;;0.77;;
20159;SDS011;50187;50.492;12.134;2023-04-03T03:55:46;1.00;;;1.00;;
20159;SDS011;50187;50.492;12.134;2023-04-03T03:58:31;1.40;;;1.30;;
20159;SDS011;50187;50.492;12.134;2023-04-03T04:01:17;0.90;;;0.90;;
20159;SDS011;50187;50.492;12.134;2023-04-03T04:04:05;0.90;;;0.90;;
20159;SDS011;50187;50.492;12.134;2023-04-03T04:06:50;1.00;;;1.00;;
20159;SDS011;50187;50.492;12.134;2023-04-03T04:09:37;0.70;;;0.70;;
20159;SDS011;50187;50.492;12.134;2023-04-03T04:12:22;0.77;;;0.77;;
20159;SDS011;50187;50.492;12.134;2023-04-03T04:15:07;0.67;;;0.67;;
20159;SDS011;50187;50.492;12.134;2023-04-03T04:17:53;0.80;;;0.70;;
20159;SDS011;50187;50.492;12.134;2023-04-03T04:20:39;1.00;;;0.90;;
20159;SDS011;50187;50.492;12.134;2023-04-03T04:23:25;0.90;;;0.90;;
20159;SDS011;50187;50.492;12.134;2023-04-03T04:26:11;0.97;;;0.90;;
20159;SDS011;50187;50.492;12.134;2023-04-03T04:28:57;0.90;;;0.90;;
20159;SDS011;50187;50.492;12.134;2023-04-03T04:31:43;0.83;;;0.83;;
20159;SDS011;50187;50.492;12.134;2023-04-03T04:34:28;0.90;;;0.90;;
20159;SDS011;50187;50.492;12.134;2023-04-03T04:37:15;0.87;;;0.70;;
20159;SDS011;50187;50.492;12.134;2023-04-03T04:40:01;0.70;;;0.70;;
20159;SDS011;50187;50.492;12.134;2023-04-03T04:42:47;1.10;;;1.10;;
20159;SDS011;50187;50.492;12.134;2023-04-03T04:45:33;0.83;;;0.83;;
20159;SDS011;50187;50.492;12.134;2023-04-03T04:48:19;1.07;;;1.00;;
20159;SDS011;50187;50.492;12.134;2023-04-03T04:51:04;0.80;;;0.80;;
20159;SDS011;50187;50.492;12.134;2023-04-03T04:53:50;0.80;;;0.80;;
20159;SDS011;50187;50.492;12.134;2023-04-03T04:56:36;1.20;;;0.90;;
20159;SDS011;50187;50.492;12.134;2023-04-03T04:59:22;0.70;;;0.70;;
20159;SDS011;50187;50.492;12.134;2023-04-03T05:02:09;1.00;;;0.90;;
20159;SDS011;50187;50.492;12.134;2023-04-03T05:04:57;1.10;;;0.97;;
20159;SDS011;50187;50.492;12.134;2023-04-03T05:07:45;0.90;;;0.90;;
20159;SDS011;50187;50.492;12.134;2023-04-03T05:10:31;1.00;;;1.00;;
20159;SDS011;50187;50.492;12.134;2023-04-03T05:13:17;0.80;;;0.80;;
20159;SDS011;50187;50.492;12.134;2023-04-03T05:16:02;0.83;;;0.80;;
20159;SDS011;50187;50.492;12.134;2023-04-03T05:18:48;0.60;;;0.60;;
20159;SDS011;50187;50.492;12.134;2023-04-03T05:21:36;1.03;;;0.97;;
20159;SDS011;50187;50.492;12.134;2023-04-03T05:24:26;0.80;;;0.80;;
20159;SDS011;50187;50.492;12.134;2023-04-03T05:27:12;1.13;;;0.90;;
20159;SDS011;50187;50.492;12.134;2023-04-03T05:30:01;0.90;;;0.80;;
20159;SDS011;50187;50.492;12.134;2023-04-03T05:32:49;0.90;;;0.90;;
20159;SDS011;50187;50.492;12.134;2023-04-03T05:35:46;0.83;;;0.83;;
20159;SDS011;50187;50.492;12.134;2023-04-03T05:38:36;0.87;;;0.87;;
20159;SDS011;50187;50.492;12.134;2023-04-03T05:41:22;2.30;;;1.07;;
20159;SDS011;50187;50.492;12.134;2023-04-03T05:44:08;1.00;;;0.90;;
20159;SDS011;50187;50.492;12.134;2023-04-03T05:46:53;0.77;;;0.77;;
20159;SDS011;50187;50.492;12.134;2023-04-03T05:49:39;0.67;;;0.67;;
20159;SDS011;50187;50.492;12.134;2023-04-03T05:52:30;0.80;;;0.80;;
20159;SDS011;50187;50.492;12.134;2023-04-03T05:55:19;0.90;;;0.87;;
20159;SDS011;50187;50.492;12.134;2023-04-03T05:58:05;1.00;;;1.00;;
20159;SDS011;50187;50.492;12.134;2023-04-03T06:00:53;0.80;;;0.80;;
20159;SDS011;50187;50.492;12.134;2023-04-03T06:03:37;0.63;;;0.63;;
20159;SDS011;50187;50.492;12.134;2023-04-03T06:06:41;0.67;;;0.67;;
20159;SDS011;50187;50.492;12.134;2023-04-03T06:09:36;0.80;;;0.80;;
20159;SDS011;50187;50.492;12.134;2023-04-03T06:12:22;0.80;;;0.80;;
20159;SDS011;50187;50.492;12.134;2023-04-03T06:15:07;1.10;;;1.00;;
20159;SDS011;50187;50.492;12.134;2023-04-03T06:17:54;0.70;;;0.70;;
20159;SDS011;50187;50.492;12.134;2023-04-03T06:20:40;0.90;;;0.90;;
20159;SDS011;50187;50.492;12.134;2023-04-03T06:23:25;0.93;;;0.80;;
20159;SDS011;50187;50.492;12.134;2023-04-03T06:26:10;0.77;;;0.77;;
20159;SDS011;50187;50.492;12.134;2023-04-03T06:28:56;0.70;;;0.70;;
20159;SDS011;50187;50.492;12.134;2023-04-03T06:31:41;1.00;;;1.00;;
20159;SDS011;50187;50.492;12.134;2023-04-03T06:34:26;0.83;;;0.83;;
20159;SDS011;50187;50.492;12.134;2023-04-03T06:37:16;0.70;;;0.70;;
20159;SDS011;50187;50.492;12.134;2023-04-03T06:40:03;0.97;;;0.90;;
20159;SDS011;50187;50.492;12.134;2023-04-03T06:42:49;0.80;;;0.80;;
20159;SDS011;50187;50.492;12.134;2023-04-03T06:45:36;1.17;;;0.90;;
20159;SDS011;50187;50.492;12.134;2023-04-03T06:48:22;0.87;;;0.83;;
20159;SDS011;50187;50.492;12.134;2023-04-03T06:51:12;1.03;;;0.93;;
20159;SDS011;50187;50.492;12.134;2023-04-03T06:54:08;0.90;;;0.90;;
20159;SDS011;50187;50.492;12.134;2023-04-03T06:56:53;0.77;;;0.77;;
20159;SDS011;50187;50.492;12.134;2023-04-03T06:59:39;0.90;;;0.90;;
20159;SDS011;50187;50.492;12.134;2023-04-03T07:02:25;1.47;;;1.37;;
20159;SDS011;50187;50.492;12.134;2023-04-03T07:05:11;1.03;;;1.03;;
20159;SDS011;50187;50.492;12.134;2023-04-03T07:07:57;1.27;;;1.17;;
20159;SDS011;50187;50.492;12.134;2023-04-03T07:10:43;0.93;;;0.90;;
20159;SDS011;50187;50.492;12.134;2023-04-03T07:13:28;1.23;;;1.10;;
20159;SDS011;50187;50.492;12.134;2023-04-03T07:16:14;1.10;;;1.03;;
20159;SDS011;50187;50.492;12.134;2023-04-03T07:18:59;1.10;;;1.10;;
20159;SDS011;50187;50.492;12.134;2023-04-03T07:21:45;0.90;;;0.90;;
20159;SDS011;50187;50.492;12.134;2023-04-03T07:24:30;1.10;;;1.10;;
20159;SDS011;50187;50.492;12.134;2023-04-03T07:27:16;1.23;;;1.13;;
20159;SDS011;50187;50.492;12.134;2023-04-03T07:30:02;0.93;;;0.90;;
20159;SDS011;50187;50.492;12.134;2023-04-03T07:32:47;1.30;;;1.20;;
20159;SDS011;50187;50.492;12.134;2023-04-03T07:35:33;1.13;;;1.03;;
20159;SDS011;50187;50.492;12.134;2023-04-03T07:38:25;0.83;;;0.83;;
20159;SDS011;50187;50.492;12.134;2023-04-03T07:41:15;1.20;;;1.20;;
20159;SDS011;50187;50.492;12.134;2023-04-03T07:44:02;1.07;;;1.03;;
20159;SDS011;50187;50.492;12.134;2023-04-03T07:46:48;1.60;;;1.43;;
20159;SDS011;50187;50.492;12.134;2023-04-03T07:49:33;1.50;;;1.40;;
20159;SDS011;50187;50.492;12.134;2023-04-03T07:52:19;1.50;;;1.40;;
20159;SDS011;50187;50.492;12.134;2023-04-03T07:55:05;1.63;;;1.53;;
20159;SDS011;50187;50.492;12.134;2023-04-03T07:57:51;1.70;;;1.40;;
20159;SDS011;50187;50.492;12.134;2023-04-03T08:00:37;1.77;;;1.67;;
20159;SDS011;50187;50.492;12.134;2023-04-03T08:03:23;1.83;;;1.73;;
20159;SDS011;50187;50.492;12.134;2023-04-03T08:06:09;2.40;;;1.93;;
20159;SDS011;50187;50.492;12.134;2023-04-03T08:09:00;2.50;;;2.30;;
20159;SDS011;50187;50.492;12.134;2023-04-03T08:11:46;2.10;;;2.00;;
20159;SDS011;50187;50.492;12.134;2023-04-03T08:14:31;2.23;;;2.13;;
20159;SDS011;50187;50.492;12.134;2023-04-03T08:17:19;1.93;;;1.83;;
20159;SDS011;50187;50.492;12.134;2023-04-03T08:20:05;2.27;;;2.03;;
20159;SDS011;50187;50.492;12.134;2023-04-03T08:22:53;2.60;;;2.40;;
20159;SDS011;50187;50.492;12.134;2023-04-03T08:25:39;2.43;;;2.23;;
20159;SDS011;50187;50.492;12.134;2023-04-03T08:28:25;3.23;;;2.93;;
20159;SDS011;50187;50.492;12.134;2023-04-03T08:31:12;2.60;;;2.40;;
20159;SDS011;50187;50.492;12.134;2023-04-03T08:34:03;2.80;;;2.60;;
20159;SDS011;50187;50.492;12.134;2023-04-03T08:36:48;3.20;;;3.00;;
20159;SDS011;50187;50.492;12.134;2023-04-03T08:39:33;3.00;;;2.80;;
20159;SDS011;50187;50.492;12.134;2023-04-03T08:42:24;2.80;;;2.60;;
20159;SDS011;50187;50.492;12.134;2023-04-03T08:45:25;2.93;;;2.50;;
20159;SDS011;50187;50.492;12.134;2023-04-03T08:48:54;3.30;;;3.10;;
20159;SDS011;50187;50.492;12.134;2023-04-03T08:51:44;3.30;;;3.10;;
20159;SDS011;50187;50.492;12.134;2023-04-03T08:54:36;3.20;;;3.00;;
20159;SDS011;50187;50.492;12.134;2023-04-03T08:57:30;3.23;;;2.97;;
20159;SDS011;50187;50.492;12.134;2023-04-03T09:00:20;3.23;;;3.03;;
20159;SDS011;50187;50.492;12.134;2023-04-03T09:03:10;3.40;;;3.10;;
20159;SDS011;50187;50.492;12.134;2023-04-03T09:09:01;3.47;;;3.27;;
20159;SDS011;50187;50.492;12.134;2023-04-03T09:18:24;3.57;;;3.37;;
20159;SDS011;50187;50.492;12.134;2023-04-03T09:21:24;3.40;;;3.03;;
20159;SDS011;50187;50.492;12.134;2023-04-03T09:24:21;3.03;;;2.83;;
20159;SDS011;50187;50.492;12.134;2023-04-03T09:27:10;3.43;;;3.23;;
20159;SDS011;50187;50.492;12.134;2023-04-03T09:29:56;3.37;;;3.07;;
20159;SDS011;50187;50.492;12.134;2023-04-03T09:32:44;3.53;;;3.23;;
20159;SDS011;50187;50.492;12.134;2023-04-03T09:35:33;3.10;;;2.90;;
20159;SDS011;50187;50.492;12.134;2023-04-03T09:38:32;3.80;;;3.50;;
20159;SDS011;50187;50.492;12.134;2023-04-03T09:41:18;4.10;;;3.80;;
20159;SDS011;50187;50.492;12.134;2023-04-03T09:44:04;4.30;;;3.97;;
20159;SDS011;50187;50.492;12.134;2023-04-03T09:47:52;4.00;;;3.70;;
20159;SDS011;50187;50.492;12.134;2023-04-03T09:53:06;4.00;;;3.70;;
20159;SDS011;50187;50.492;12.134;2023-04-03T10:05:34;4.30;;;3.93;;
20159;SDS011;50187;50.492;12.134;2023-04-03T10:08:29;3.80;;;3.50;;
20159;SDS011;50187;50.492;12.134;2023-04-03T10:11:18;4.10;;;3.80;;
20159;SDS011;50187;50.492;12.134;2023-04-03T10:14:15;4.07;;;3.40;;
20159;SDS011;50187;50.492;12.134;2023-04-03T10:17:09;3.80;;;3.50;;
20159;SDS011;50187;50.492;12.134;2023-04-03T10:23:19;3.70;;;3.50;;
20159;SDS011;50187;50.492;12.134;2023-04-03T10:54:25;3.87;;;3.57;;
20159;SDS011;50187;50.492;12.134;2023-04-03T10:57:17;4.10;;;3.80;;
20159;SDS011;50187;50.492;12.134;2023-04-03T11:00:04;3.50;;;3.20;;
20159;SDS011;50187;50.492;12.134;2023-04-03T11:02:55;3.50;;;3.23;;
20159;SDS011;50187;50.492;12.134;2023-04-03T11:05:44;3.20;;;3.00;;
20159;SDS011;50187;50.492;12.134;2023-04-03T11:08:53;2.90;;;2.70;;
20159;SDS011;50187;50.492;12.134;2023-04-03T11:11:42;3.10;;;2.90;;
20159;SDS011;50187;50.492;12.134;2023-04-03T11:14:30;3.17;;;2.90;;
20159;SDS011;50187;50.492;12.134;2023-04-03T11:20:10;3.10;;;2.90;;
20159;SDS011;50187;50.492;12.134;2023-04-03T11:26:00;2.73;;;2.53;;
20159;SDS011;50187;50.492;12.134;2023-04-03T11:29:13;2.97;;;2.77;;
20159;SDS011;50187;50.492;12.134;2023-04-03T11:35:15;3.20;;;3.00;;
20159;SDS011;50187;50.492;12.134;2023-04-03T11:38:02;3.47;;;3.17;;
20159;SDS011;50187;50.492;12.134;2023-04-03T11:40:51;3.10;;;2.90;;
20159;SDS011;50187;50.492;12.134;2023-04-03T11:46:52;2.80;;;2.67;;
20159;SDS011;50187;50.492;12.134;2023-04-03T11:49:52;3.17;;;2.97;;
20159;SDS011;50187;50.492;12.134;2023-04-03T11:58:16;2.93;;;2.73;;
20159;SDS011;50187;50.492;12.134;2023-04-03T12:01:04;2.90;;;2.70;;
20159;SDS011;50187;50.492;12.134;2023-04-03T12:09:26;3.30;;;2.60;;
20159;SDS011;50187;50.492;12.134;2023-04-03T12:15:20;2.90;;;2.60;;
20159;SDS011;50187;50.492;12.134;2023-04-03T12:27:04;2.70;;;2.50;;
20159;SDS011;50187;50.492;12.134;2023-04-03T12:30:07;2.80;;;2.60;;
20159;SDS011;50187;50.492;12.134;2023-04-03T12:36:13;2.97;;;2.50;;
20159;SDS011;50187;50.492;12.134;2023-04-03T12:39:16;2.33;;;2.23;;
20159;SDS011;50187;50.492;12.134;2023-04-03T12:45:38;2.77;;;2.57;;
20159;SDS011;50187;50.492;12.134;2023-04-03T12:48:27;6.00;;;2.63;;
20159;SDS011;50187;50.492;12.134;2023-04-03T12:51:19;3.60;;;2.60;;
20159;SDS011;50187;50.492;12.134;2023-04-03T12:54:15;2.97;;;2.70;;
20159;SDS011;50187;50.492;12.134;2023-04-03T12:57:24;2.90;;;2.60;;
20159;SDS011;50187;50.492;12.134;2023-04-03T13:00:25;2.73;;;2.40;;
20159;SDS011;50187;50.492;12.134;2023-04-03T13:03:25;2.53;;;2.33;;
20159;SDS011;50187;50.492;12.134;2023-04-03T13:06:34;4.73;;;2.93;;
20159;SDS011;50187;50.492;12.134;2023-04-03T13:09:29;3.40;;;2.43;;
20159;SDS011;50187;50.492;12.134;2023-04-03T13:12:17;6.43;;;2.63;;
20159;SDS011;50187;50.492;12.134;2023-04-03T13:15:12;2.60;;;2.40;;
20159;SDS011;50187;50.492;12.134;2023-04-03T13:18:25;2.30;;;2.20;;
20159;SDS011;50187;50.492;12.134;2023-04-03T13:21:19;4.10;;;2.77;;
20159;SDS011;50187;50.492;12.134;2023-04-03T13:24:11;2.83;;;2.37;;
20159;SDS011;50187;50.492;12.134;2023-04-03T13:27:00;2.37;;;2.17;;
20159;SDS011;50187;50.492;12.134;2023-04-03T13:29:50;2.40;;;2.20;;
20159;SDS011;50187;50.492;12.134;2023-04-03T13:32:37;4.47;;;2.67;;
20159;SDS011;50187;50.492;12.134;2023-04-03T13:41:04;3.03;;;2.53;;
20159;SDS011;50187;50.492;12.134;2023-04-03T13:44:22;4.77;;;2.30;;
20159;SDS011;50187;50.492;12.134;2023-04-03T19:24:23;1.27;;;1.10;;
20159;SDS011;50187;50.492;12.134;2023-04-03T19:27:09;1.13;;;1.03;;
20159;SDS011;50187;50.492;12.134;2023-04-03T19:29:55;1.43;;;1.33;;
20159;SDS011;50187;50.492;12.134;2023-04-03T19:32:40;1.10;;;1.10;;
20159;SDS011;50187;50.492;12.134;2023-04-03T19:35:25;0.90;;;0.90;;
20159;SDS011;50187;50.492;12.134;2023-04-03T19:38:09;1.00;;;1.00;;
20159;SDS011;50187;50.492;12.134;2023-04-03T19:40:55;1.33;;;1.00;;
20159;SDS011;50187;50.492;12.134;2023-04-03T19:43:40;1.00;;;1.00;;
20159;SDS011;50187;50.492;12.134;2023-04-03T19:46:27;1.20;;;1.20;;
20159;SDS011;50187;50.492;12.134;2023-04-03T19:49:13;1.27;;;1.17;;
20159;SDS011;50187;50.492;12.134;2023-04-03T19:51:58;1.27;;;1.17;;
20159;SDS011;50187;50.492;12.134;2023-04-03T19:54:44;1.20;;;1.10;;
20159;SDS011;50187;50.492;12.134;2023-04-03T19:57:29;0.90;;;0.90;;
20159;SDS011;50187;50.492;12.134;2023-04-03T20:00:15;1.10;;;1.10;;
20159;SDS011;50187;50.492;12.134;2023-04-03T20:03:00;0.83;;;0.83;;
20159;SDS011;50187;50.492;12.134;2023-04-03T20:05:45;0.90;;;0.90;;
20159;SDS011;50187;50.492;12.134;2023-04-03T20:08:30;0.70;;;0.70;;
20159;SDS011;50187;50.492;12.134;2023-04-03T20:11:16;1.40;;;1.30;;
20159;SDS011;50187;50.492;12.134;2023-04-03T20:14:01;1.43;;;1.10;;
20159;SDS011;50187;50.492;12.134;2023-04-03T20:16:47;2.17;;;1.10;;
20159;SDS011;50187;50.492;12.134;2023-04-03T20:19:32;1.00;;;1.00;;
20159;SDS011;50187;50.492;12.134;2023-04-03T20:22:17;1.67;;;1.20;;
20159;SDS011;50187;50.492;12.134;2023-04-03T20:25:06;1.00;;;1.00;;
20159;SDS011;50187;50.492;12.134;2023-04-03T20:27:53;1.77;;;0.83;;
20159;SDS011;50187;50.492;12.134;2023-04-03T20:30:38;1.30;;;1.20;;
20159;SDS011;50187;50.492;12.134;2023-04-03T20:33:24;1.07;;;1.03;;
20159;SDS011;50187;50.492;12.134;2023-04-03T20:36:12;0.97;;;0.97;;
20159;SDS011;50187;50.492;12.134;2023-04-03T20:38:58;1.00;;;1.00;;
20159;SDS011;50187;50.492;12.134;2023-04-03T20:41:43;0.90;;;0.90;;
20159;SDS011;50187;50.492;12.134;2023-04-03T20:44:28;1.03;;;0.97;;
20159;SDS011;50187;50.492;12.134;2023-04-03T20:47:14;1.10;;;1.10;;
20159;SDS011;50187;50.492;12.134;2023-04-03T20:50:00;1.40;;;1.30;;
20159;SDS011;50187;50.492;12.134;2023-04-03T20:52:45;0.97;;;0.87;;
20159;SDS011;50187;50.492;12.134;2023-04-03T20:55:30;0.90;;;0.90;;
20159;SDS011;50187;50.492;12.134;2023-04-03T20:58:16;0.90;;;0.90;;
20159;SDS011;50187;50.492;12.134;2023-04-03T21:01:13;1.03;;;1.00;;
20159;SDS011;50187;50.492;12.134;2023-04-03T21:04:11;1.40;;;1.30;;
20159;SDS011;50187;50.492;12.134;2023-04-03T21:20:03;0.70;;;0.70;;
20159;SDS011;50187;50.492;12.134;2023-04-03T21:22:48;0.60;;;0.60;;
20159;SDS011;50187;50.492;12.134;2023-04-03T21:25:34;0.70;;;0.70;;
20159;SDS011;50187;50.492;12.134;2023-04-03T21:28:19;1.00;;;1.00;;
20159;SDS011;50187;50.492;12.134;2023-04-03T21:31:05;0.80;;;0.80;;
20159;SDS011;50187;50.492;12.134;2023-04-03T21:33:50;1.00;;;1.00;;
20159;SDS011;50187;50.492;12.134;2023-04-03T21:36:39;0.60;;;0.60;;
20159;SDS011;50187;50.492;12.134;2023-04-03T21:39:24;1.10;;;1.00;;
20159;SDS011;50187;50.492;12.134;2023-04-03T21:42:10;0.77;;;0.77;;
20159;SDS011;50187;50.492;12.134;2023-04-03T21:44:55;1.00;;;0.70;;
20159;SDS011;50187;50.492;12.134;2023-04-03T21:47:41;0.80;;;0.80;;
20159;SDS011;50187;50.492;12.134;2023-04-03T21:50:27;0.80;;;0.80;;
20159;SDS011;50187;50.492;12.134;2023-04-03T21:53:13;0.70;;;0.70;;
20159;SDS011;50187;50.492;12.134;2023-04-03T21:55:59;1.70;;;1.13;;
20159;SDS011;50187;50.492;12.134;2023-04-03T21:58:46;0.83;;;0.83;;
20159;SDS011;50187;50.492;12.134;2023-04-03T22:01:31;1.00;;;1.00;;
20159;SDS011;50187;50.492;12.134;2023-04-03T22:04:17;0.70;;;0.70;;
20159;SDS011;50187;50.492;12.134;2023-04-03T22:07:02;0.90;;;0.90;;
20159;SDS011;50187;50.492;12.134;2023-04-03T22:09:47;0.67;;;0.67;;
20159;SDS011;50187;50.492;12.134;2023-04-03T22:12:32;0.97;;;0.97;;
20159;SDS011;50187;50.492;12.134;2023-04-03T22:15:17;1.03;;;1.03;;
20159;SDS011;50187;50.492;12.134;2023-04-03T22:18:02;0.70;;;0.70;;
20159;SDS011;50187;50.492;12.134;2023-04-03T22:20:48;0.67;;;0.67;;
20159;SDS011;50187;50.492;12.134;2023-04-03T22:23:33;0.97;;;0.97;;
20159;SDS011;50187;50.492;12.134;2023-04-03T22:26:18;0.93;;;0.70;;
20159;SDS011;50187;50.492;12.134;2023-04-03T22:29:05;1.20;;;1.00;;
20159;SDS011;50187;50.492;12.134;2023-04-03T22:31:50;0.60;;;0.60;;
20159;SDS011;50187;50.492;12.134;2023-04-03T22:34:36;0.80;;;0.80;;
20159;SDS011;50187;50.492;12.134;2023-04-03T22:37:24;0.67;;;0.67;;
20159;SDS011;50187;50.492;12.134;2023-04-03T22:40:10;0.60;;;0.60;;
20159;SDS011;50187;50.492;12.134;2023-04-03T22:42:57;0.70;;;0.70;;
20159;SDS011;50187;50.492;12.134;2023-04-03T22:45:48;0.90;;;0.90;;
20159;SDS011;50187;50.492;12.134;2023-04-03T22:48:34;0.83;;;0.83;;
20159;SDS011;50187;50.492;12.134;2023-04-03T22:51:21;1.30;;;1.20;;
20159;SDS011;50187;50.492;12.134;2023-04-03T22:54:06;0.80;;;0.80;;
20159;SDS011;50187;50.492;12.134;2023-04-03T22:56:51;0.73;;;0.73;;
20159;SDS011;50187;50.492;12.134;2023-04-03T22:59:36;0.80;;;0.80;;
20159;SDS011;50187;50.492;12.134;2023-04-03T23:02:22;0.80;;;0.80;;
20159;SDS011;50187;50.492;12.134;2023-04-03T23:05:07;0.60;;;0.60;;
20159;SDS011;50187;50.492;12.134;2023-04-03T23:07:52;0.93;;;0.93;;
20159;SDS011;50187;50.492;12.134;2023-04-03T23:10:39;1.40;;;0.93;;
20159;SDS011;50187;50.492;12.134;2023-04-03T23:13:25;0.70;;;0.70;;
20159;SDS011;50187;50.492;12.134;2023-04-03T23:16:11;1.13;;;0.90;;
20159;SDS011;50187;50.492;12.134;2023-04-03T23:18:57;0.80;;;0.80;;
20159;SDS011;50187;50.492;12.134;2023-04-03T23:21:42;0.60;;;0.60;;
20159;SDS011;50187;50.492;12.134;2023-04-03T23:24:27;0.70;;;0.70;;
20159;SDS011;50187;50.492;12.134;2023-04-03T23:27:13;0.83;;;0.83;;
20159;SDS011;50187;50.492;12.134;2023-04-03T23:29:58;0.70;;;0.70;;
20159;SDS011;50187;50.492;12.134;2023-04-03T23:32:44;0.77;;;0.77;;
20159;SDS011;50187;50.492;12.134;2023-04-03T23:35:29;0.80;;;0.80;;
20159;SDS011;50187;50.492;12.134;2023-04-03T23:38:16;0.80;;;0.80;;
20159;SDS011;50187;50.492;12.134;2023-04-03T23:41:02;0.67;;;0.67;;
20159;SDS011;50187;50.492;12.134;2023-04-03T23:43:47;0.63;;;0.63;;
20159;SDS011;50187;50.492;12.134;2023-04-03T23:46:32;1.03;;;0.90;;
20159;SDS011;50187;50.492;12.134;2023-04-03T23:49:17;0.77;;;0.77;;
20159;SDS011;50187;50.492;12.134;2023-04-03T23:52:02;1.03;;;0.90;;
20159;SDS011;50187;50.492;12.134;2023-04-03T23:54:47;0.83;;;0.80;;
20159;SDS011;50187;50.492;12.134;2023-04-03T23:57:34;0.80;;;0.80;;
